Time;durP1;ratioP1;P1;durP2;ratioP2;P2;SDS_P1;SDS_P2;PMS_P1;PMS_P2;Temp;Humidity;BMP_temperature;BMP_pressure;BME280_temperature;BME280_humidity;BME280_pressure;Samples;Min_cycle;Max_cycle;Signal;HPM_P1;HPM_P2
2023/05/01 00:01:12;;;;;;;3.30;1.58;;;16.00;45.00;;;;;;5050045;28;20124;-47
2023/05/01 00:03:39;;;;;;;4.95;1.65;;;16.00;45.10;;;;;;5047350;28;20419;-47
2023/05/01 00:06:06;;;;;;;2.65;1.42;;;16.00;45.50;;;;;;5046066;28;20056;-46
2023/05/01 00:08:34;;;;;;;5.07;1.40;;;16.00;45.00;;;;;;5046165;28;20057;-46
2023/05/01 00:11:03;;;;;;;2.67;1.30;;;16.00;45.10;;;;;;5049333;28;20056;-46
2023/05/01 00:13:30;;;;;;;2.05;1.25;;;16.00;45.20;;;;;;5044787;28;20061;-47
2023/05/01 00:15:57;;;;;;;3.72;1.98;;;15.90;45.20;;;;;;5052318;28;20048;-47
2023/05/01 00:18:26;;;;;;;2.65;1.60;;;15.90;45.20;;;;;;5044397;28;20045;-45
2023/05/01 00:20:53;;;;;;;3.08;1.60;;;15.90;45.30;;;;;;5044874;28;20060;-46
2023/05/01 00:23:20;;;;;;;3.63;1.58;;;15.90;45.20;;;;;;5042224;28;20496;-46
2023/05/01 00:25:48;;;;;;;2.28;1.50;;;15.90;45.30;;;;;;5056353;28;20455;-46
2023/05/01 00:28:15;;;;;;;2.20;1.50;;;15.90;45.40;;;;;;5042340;28;20080;-46
2023/05/01 00:30:44;;;;;;;5.90;1.60;;;15.80;45.40;;;;;;5041959;28;20543;-46
2023/05/01 00:33:11;;;;;;;5.13;1.50;;;15.80;45.40;;;;;;5041425;28;20071;-48
2023/05/01 00:35:40;;;;;;;3.20;1.70;;;15.80;45.40;;;;;;5046517;28;20057;-46
2023/05/01 00:38:07;;;;;;;2.60;1.58;;;15.80;45.50;;;;;;5042863;28;20060;-46
2023/05/01 00:40:42;;;;;;;2.58;1.40;;;15.80;45.50;;;;;;5053215;28;20055;-45
2023/05/01 00:43:09;;;;;;;3.08;1.55;;;15.80;45.50;;;;;;5048438;28;20048;-46
2023/05/01 00:45:37;;;;;;;2.67;1.75;;;15.80;45.60;;;;;;5039851;28;20048;-47
2023/05/01 00:48:04;;;;;;;3.38;1.73;;;15.70;45.60;;;;;;5047189;28;20048;-46
2023/05/01 00:50:32;;;;;;;4.13;1.60;;;15.70;45.70;;;;;;5048838;28;20053;-47
2023/05/01 00:53:01;;;;;;;3.22;1.60;;;15.70;45.70;;;;;;5043793;28;20064;-46
2023/05/01 00:55:28;;;;;;;5.00;1.73;;;15.70;45.60;;;;;;5045952;28;20052;-45
2023/05/01 00:57:57;;;;;;;2.78;1.55;;;15.70;45.60;;;;;;5051850;28;20064;-48
2023/05/01 01:00:28;;;;;;;2.97;1.67;;;15.70;45.60;;;;;;5067851;22;20040;-51
2023/05/01 01:02:55;;;;;;;3.22;1.92;;;15.70;45.50;;;;;;5042044;28;20392;-51
2023/05/01 01:05:26;;;;;;;3.25;1.60;;;15.60;45.40;;;;;;5041023;28;20045;-48
2023/05/01 01:08:04;;;;;;;2.70;1.50;;;15.60;45.50;;;;;;5042530;28;20053;-49
2023/05/01 01:10:40;;;;;;;4.95;1.70;;;15.60;45.50;;;;;;5037947;28;20057;-50
2023/05/01 01:13:13;;;;;;;4.00;1.70;;;15.50;45.50;;;;;;5038576;28;20048;-50
2023/05/01 01:15:48;;;;;;;3.83;2.10;;;15.50;45.60;;;;;;5033568;28;20518;-51
2023/05/01 01:18:21;;;;;;;3.08;1.80;;;15.50;45.60;;;;;;5041291;28;20049;-48
2023/05/01 01:20:53;;;;;;;2.83;1.70;;;15.50;45.70;;;;;;5036467;28;20068;-50
2023/05/01 01:23:44;;;;;;;3.17;1.80;;;15.40;45.60;;;;;;5040699;28;20076;-50
2023/05/01 01:26:22;;;;;;;4.20;2.05;;;15.40;45.60;;;;;;5040503;28;20049;-51
2023/05/01 01:29:12;;;;;;;3.25;1.67;;;15.40;45.70;;;;;;5038599;28;20147;-51
2023/05/01 01:31:51;;;;;;;2.00;1.40;;;15.30;45.80;;;;;;5035686;28;20056;-51
2023/05/01 01:34:26;;;;;;;2.97;1.80;;;15.30;45.80;;;;;;5038593;28;20087;-48
2023/05/01 01:37:02;;;;;;;2.05;1.50;;;15.30;46.00;;;;;;5039351;28;20052;-54
2023/05/01 01:39:38;;;;;;;2.75;1.83;;;15.20;46.10;;;;;;5036520;28;20065;-51
2023/05/01 01:42:09;;;;;;;1.77;1.45;;;15.20;46.20;;;;;;5036577;28;20412;-50
2023/05/01 01:44:41;;;;;;;3.28;1.95;;;15.20;46.30;;;;;;5033393;28;20072;-49
2023/05/01 01:47:14;;;;;;;4.95;1.95;;;15.20;46.40;;;;;;5036773;28;20061;-49
2023/05/01 01:49:48;;;;;;;2.83;2.03;;;15.20;46.50;;;;;;5039093;28;20052;-52
2023/05/01 01:52:16;;;;;;;;;;;15.10;46.50;;;;;;5038750;28;20427;-52
2023/05/01 01:54:51;;;;;;;4.28;1.80;;;15.20;46.70;;;;;;5040399;28;19932;-48
2023/05/01 01:57:21;;;;;;;2.58;1.80;;;15.10;46.50;;;;;;5037113;28;20056;-50
2023/05/01 01:59:50;;;;;;;3.83;2.03;;;15.10;46.50;;;;;;5034327;28;20049;-50
2023/05/01 02:02:20;;;;;;;6.55;2.20;;;15.10;46.60;;;;;;5040336;28;20056;-47
2023/05/01 02:04:51;;;;;;;4.60;2.10;;;15.10;46.70;;;;;;5039465;28;20053;-50
2023/05/01 02:07:19;;;;;;;7.45;2.60;;;15.00;46.60;;;;;;5039362;28;20052;-49
2023/05/01 02:09:50;;;;;;;5.68;2.30;;;15.00;46.60;;;;;;5041520;28;20061;-49
2023/05/01 02:12:19;;;;;;;3.03;1.90;;;15.00;46.70;;;;;;5039963;28;20056;-48
2023/05/01 02:14:49;;;;;;;3.15;1.92;;;14.90;46.70;;;;;;5037005;28;20488;-52
2023/05/01 02:17:20;;;;;;;3.42;2.22;;;14.90;46.80;;;;;;5039525;28;20048;-47
2023/05/01 02:19:51;;;;;;;3.25;1.90;;;14.90;46.80;;;;;;5037081;28;20060;-52
2023/05/01 02:22:20;;;;;;;2.63;1.85;;;14.90;46.80;;;;;;5037485;28;20045;-51
2023/05/01 02:24:48;;;;;;;3.78;2.10;;;14.90;46.90;;;;;;5037380;28;20060;-52
2023/05/01 02:27:18;;;;;;;5.30;2.08;;;14.90;46.90;;;;;;5039437;28;20116;-52
2023/05/01 02:29:45;;;;;;;5.03;2.30;;;14.90;47.00;;;;;;5038842;28;20060;-52
2023/05/01 02:32:13;;;;;;;4.53;2.08;;;14.90;47.00;;;;;;5034474;28;20076;-52
2023/05/01 02:34:40;;;;;;;7.00;2.15;;;14.90;47.10;;;;;;5041109;28;20057;-50
2023/05/01 02:37:11;;;;;;;3.25;2.13;;;14.80;47.10;;;;;;5021793;28;20053;-51
2023/05/01 02:39:39;;;;;;;3.15;2.10;;;14.80;47.10;;;;;;5036272;28;20060;-50
2023/05/01 02:42:10;;;;;;;5.68;2.40;;;14.80;47.10;;;;;;5036812;28;21106;-52
2023/05/01 02:44:41;;;;;;;4.40;2.30;;;14.80;47.10;;;;;;5035387;28;20052;-51
2023/05/01 02:47:13;;;;;;;4.30;2.20;;;14.80;47.10;;;;;;5037142;28;20060;-50
2023/05/01 02:49:42;;;;;;;2.88;1.95;;;14.80;47.10;;;;;;5038313;28;20056;-51
2023/05/01 02:52:12;;;;;;;3.30;1.95;;;14.80;47.10;;;;;;5038483;28;20518;-52
2023/05/01 02:54:39;;;;;;;2.72;2.10;;;14.80;47.10;;;;;;5037841;28;20486;-50
2023/05/01 02:57:07;;;;;;;3.47;2.10;;;14.80;47.10;;;;;;5038350;28;20051;-51
2023/05/01 02:59:34;;;;;;;3.95;2.28;;;14.80;47.10;;;;;;5035347;28;20056;-53
2023/05/01 03:02:01;;;;;;;3.90;2.72;;;14.80;47.10;;;;;;5034460;28;20412;-51
2023/05/01 03:04:28;;;;;;;5.00;2.20;;;14.80;47.10;;;;;;5037335;28;20052;-54
2023/05/01 03:06:56;;;;;;;6.25;2.63;;;14.80;47.10;;;;;;5038073;28;20052;-52
2023/05/01 03:09:25;;;;;;;4.13;2.17;;;14.80;47.10;;;;;;5036864;28;20417;-52
2023/05/01 03:11:52;;;;;;;3.45;2.30;;;14.80;47.10;;;;;;5037510;28;20088;-52
2023/05/01 03:14:19;;;;;;;3.97;2.38;;;14.70;47.10;;;;;;5034404;28;20049;-49
2023/05/01 03:16:46;;;;;;;5.50;3.17;;;14.70;47.10;;;;;;5037895;28;20049;-47
2023/05/01 03:19:14;;;;;;;4.18;1.80;;;14.70;47.10;;;;;;5036423;28;20052;-47
2023/05/01 03:21:41;;;;;;;4.47;2.50;;;14.80;47.20;;;;;;5035411;28;20400;-45
2023/05/01 03:24:09;;;;;;;4.40;2.65;;;14.70;47.20;;;;;;5037208;28;20060;-47
2023/05/01 03:26:37;;;;;;;4.43;2.40;;;14.70;47.20;;;;;;5037580;28;20067;-49
2023/05/01 03:29:08;;;;;;;4.53;2.38;;;14.70;47.20;;;;;;5037109;28;20048;-46
2023/05/01 03:31:35;;;;;;;10.90;2.58;;;14.70;47.20;;;;;;5034051;28;20063;-46
2023/05/01 03:34:03;;;;;;;3.78;2.25;;;14.70;47.20;;;;;;5037407;28;20116;-53
2023/05/01 03:36:32;;;;;;;3.80;2.42;;;14.70;47.20;;;;;;5036222;28;20068;-50
2023/05/01 03:38:59;;;;;;;4.65;2.90;;;14.70;47.20;;;;;;5038395;28;20520;-47
2023/05/01 03:41:27;;;;;;;4.07;2.38;;;14.70;47.20;;;;;;5040154;28;20056;-46
2023/05/01 03:43:55;;;;;;;10.15;2.53;;;14.70;47.30;;;;;;5038752;28;20048;-46
2023/05/01 03:46:23;;;;;;;5.03;2.50;;;14.60;47.20;;;;;;5034686;28;20057;-47
2023/05/01 03:48:50;;;;;;;8.48;2.70;;;14.60;47.20;;;;;;5036285;28;20064;-50
2023/05/01 03:51:17;;;;;;;5.45;2.38;;;14.60;47.30;;;;;;5035264;28;20065;-49
2023/05/01 03:53:44;;;;;;;5.50;2.63;;;14.60;47.20;;;;;;5036747;28;20049;-46
2023/05/01 03:56:11;;;;;;;5.65;3.10;;;14.60;47.30;;;;;;5035465;28;20531;-47
2023/05/01 03:58:39;;;;;;;4.75;2.75;;;14.60;47.30;;;;;;5036819;28;20065;-46
2023/05/01 04:01:07;;;;;;;5.20;2.10;;;14.60;47.30;;;;;;5034752;28;20055;-47
2023/05/01 04:03:35;;;;;;;4.38;2.80;;;14.60;47.30;;;;;;5037431;28;20428;-47
2023/05/01 04:06:02;;;;;;;4.38;2.47;;;14.60;47.40;;;;;;5036595;28;20515;-46
2023/05/01 04:08:30;;;;;;;4.95;2.25;;;14.60;47.40;;;;;;5037724;28;20050;-49
2023/05/01 04:10:57;;;;;;;4.97;2.83;;;14.60;47.40;;;;;;5036028;28;20064;-50
2023/05/01 04:13:24;;;;;;;5.30;2.20;;;14.60;47.40;;;;;;5039915;28;20376;-48
2023/05/01 04:15:54;;;;;;;4.47;2.47;;;14.60;47.40;;;;;;5039886;28;20049;-47
2023/05/01 04:18:22;;;;;;;5.28;2.60;;;14.60;47.40;;;;;;5037963;28;20071;-47
2023/05/01 04:20:50;;;;;;;3.35;2.25;;;14.60;47.40;;;;;;5041993;28;20072;-50
2023/05/01 04:23:17;;;;;;;4.00;2.30;;;14.60;47.40;;;;;;5038315;28;20511;-48
2023/05/01 04:25:44;;;;;;;3.08;2.42;;;14.60;47.80;;;;;;5034232;28;20063;-47
2023/05/01 04:28:12;;;;;;;6.47;2.40;;;14.60;47.30;;;;;;5035711;28;20492;-47
2023/05/01 04:30:39;;;;;;;4.05;2.45;;;14.60;47.40;;;;;;5038816;28;20073;-47
2023/05/01 04:33:10;;;;;;;5.85;2.88;;;14.60;47.50;;;;;;5041361;28;20061;-49
2023/05/01 04:35:39;;;;;;;4.15;2.40;;;14.60;47.50;;;;;;5039217;28;20057;-51
2023/05/01 04:38:07;;;;;;;4.57;2.25;;;14.60;47.50;;;;;;5039487;28;20045;-45
2023/05/01 04:40:34;;;;;;;5.65;2.38;;;14.60;47.50;;;;;;5041119;28;20057;-48
2023/05/01 04:43:01;;;;;;;6.55;2.28;;;14.60;47.50;;;;;;5037012;28;20057;-47
2023/05/01 04:45:28;;;;;;;4.10;2.38;;;14.60;47.50;;;;;;5040305;28;20073;-47
2023/05/01 04:47:55;;;;;;;4.82;2.25;;;14.60;47.60;;;;;;5038041;28;20056;-51
2023/05/01 04:50:23;;;;;;;6.30;2.60;;;14.60;47.60;;;;;;5040778;28;20163;-46
2023/05/01 04:52:52;;;;;;;4.65;2.35;;;14.60;47.60;;;;;;5038382;28;20049;-53
2023/05/01 04:55:19;;;;;;;4.60;2.50;;;14.70;47.70;;;;;;5040424;28;20060;-46
2023/05/01 04:57:46;;;;;;;5.13;2.60;;;14.60;47.60;;;;;;5038370;28;20967;-45
2023/05/01 05:00:14;;;;;;;4.13;2.40;;;14.60;47.70;;;;;;5039970;28;20579;-46
2023/05/01 05:02:41;;;;;;;9.30;2.90;;;14.60;47.80;;;;;;5039219;28;20520;-45
2023/05/01 05:05:09;;;;;;;5.38;2.70;;;14.60;47.70;;;;;;5039501;28;20049;-45
2023/05/01 05:07:36;;;;;;;5.32;2.65;;;14.60;47.80;;;;;;5040689;28;20404;-50
2023/05/01 05:10:06;;;;;;;5.13;2.70;;;14.60;47.70;;;;;;5040801;28;20060;-48
2023/05/01 05:12:33;;;;;;;3.55;2.30;;;14.70;47.80;;;;;;5038507;28;20057;-48
2023/05/01 05:15:00;;;;;;;4.55;2.53;;;14.60;47.80;;;;;;5035686;28;20056;-51
2023/05/01 05:17:28;;;;;;;3.75;2.28;;;14.70;47.80;;;;;;5042176;28;20523;-54
2023/05/01 05:19:55;;;;;;;4.65;2.70;;;14.60;47.90;;;;;;5040888;28;20064;-51
2023/05/01 05:22:22;;;;;;;3.92;2.38;;;14.70;48.00;;;;;;5040150;28;20416;-52
2023/05/01 05:24:53;;;;;;;3.40;2.38;;;14.70;47.90;;;;;;5038350;28;20111;-49
2023/05/01 05:27:22;;;;;;;4.90;2.33;;;14.70;47.90;;;;;;5040134;28;20049;-50
2023/05/01 05:29:50;;;;;;;5.80;2.38;;;14.70;47.90;;;;;;5038096;28;20060;-52
2023/05/01 05:32:17;;;;;;;5.13;2.58;;;14.70;48.00;;;;;;5032474;28;20072;-49
2023/05/01 05:34:46;;;;;;;3.65;2.15;;;14.80;48.10;;;;;;5038088;28;20049;-49
2023/05/01 05:37:14;;;;;;;4.00;2.30;;;14.70;48.00;;;;;;5039159;28;20052;-49
2023/05/01 05:39:41;;;;;;;18.30;8.30;;;14.80;48.20;;;;;;5036858;28;20064;-52
2023/05/01 05:42:08;;;;;;;21.08;9.85;;;14.80;48.20;;;;;;5041273;28;20965;-50
2023/05/01 05:44:38;;;;;;;11.57;5.90;;;14.80;48.20;;;;;;5036062;28;20575;-49
2023/05/01 05:47:05;;;;;;;5.10;3.20;;;14.80;48.30;;;;;;5040739;28;20071;-47
2023/05/01 05:49:32;;;;;;;5.93;3.08;;;14.90;48.40;;;;;;5040096;28;20434;-51
2023/05/01 05:51:59;;;;;;;2.55;1.98;;;14.90;48.30;;;;;;5040932;28;20056;-50
2023/05/01 05:54:26;;;;;;;3.78;2.22;;;14.90;48.30;;;;;;5038696;28;20075;-49
2023/05/01 05:56:54;;;;;;;8.68;2.33;;;14.90;48.30;;;;;;5040426;28;20421;-51
2023/05/01 05:59:21;;;;;;;3.70;2.05;;;15.00;48.40;;;;;;5037179;28;20060;-48
2023/05/01 06:01:49;;;;;;;4.78;2.33;;;14.90;48.30;;;;;;5033211;28;20064;-52
2023/05/01 06:04:17;;;;;;;5.88;2.35;;;15.00;48.30;;;;;;5039625;28;20045;-50
2023/05/01 06:06:44;;;;;;;4.35;1.98;;;15.00;48.40;;;;;;5036125;28;21448;-50
2023/05/01 06:09:11;;;;;;;3.13;2.13;;;15.10;48.30;;;;;;5039942;28;20049;-50
2023/05/01 06:11:39;;;;;;;5.07;2.10;;;15.10;48.40;;;;;;5040334;28;20052;-50
2023/05/01 06:14:06;;;;;;;3.33;1.95;;;15.10;48.30;;;;;;5037109;28;20529;-51
2023/05/01 06:16:34;;;;;;;6.55;2.45;;;15.10;48.30;;;;;;5038682;28;20060;-49
2023/05/01 06:19:02;;;;;;;14.68;2.97;;;15.20;48.40;;;;;;5040598;28;20047;-53
2023/05/01 06:21:31;;;;;;;4.05;2.35;;;15.20;48.40;;;;;;5040599;28;20428;-52
2023/05/01 06:24:01;;;;;;;4.30;1.98;;;15.30;48.40;;;;;;5035782;28;20059;-50
2023/05/01 06:26:28;;;;;;;3.35;1.95;;;15.20;48.40;;;;;;5038799;28;20061;-48
2023/05/01 06:28:56;;;;;;;3.72;1.83;;;15.40;48.50;;;;;;5036095;28;20053;-50
2023/05/01 06:31:25;;;;;;;3.20;2.00;;;15.40;48.50;;;;;;5037455;28;20056;-52
2023/05/01 06:33:54;;;;;;;4.88;2.30;;;15.40;48.30;;;;;;5039078;28;20446;-48
2023/05/01 06:36:24;;;;;;;3.45;1.98;;;15.40;48.30;;;;;;5037881;28;20471;-52
2023/05/01 06:38:52;;;;;;;5.07;2.13;;;15.50;48.30;;;;;;5036331;28;20733;-52
2023/05/01 06:41:20;;;;;;;5.25;1.90;;;15.50;48.20;;;;;;5038108;28;20048;-52
2023/05/01 06:43:48;;;;;;;5.00;2.35;;;15.60;48.00;;;;;;5037816;28;20053;-51
2023/05/01 06:46:16;;;;;;;4.50;1.98;;;15.60;48.50;;;;;;5038120;28;20389;-50
2023/05/01 06:48:44;;;;;;;5.43;2.60;;;15.70;47.90;;;;;;5036839;28;20056;-49
2023/05/01 06:51:13;;;;;;;3.38;2.10;;;15.70;47.80;;;;;;5036840;28;20552;-53
2023/05/01 06:53:43;;;;;;;6.18;2.00;;;15.70;47.80;;;;;;5038896;28;20057;-49
2023/05/01 06:56:10;;;;;;;3.75;2.10;;;15.70;47.90;;;;;;5038837;28;20049;-50
2023/05/01 06:58:39;;;;;;;5.38;2.15;;;15.80;47.90;;;;;;5032736;28;20492;-50
2023/05/01 07:01:06;;;;;;;7.10;2.38;;;15.80;47.80;;;;;;5035034;28;20052;-47
2023/05/01 07:03:33;;;;;;;4.30;1.90;;;15.80;47.70;;;;;;5039098;28;20057;-49
2023/05/01 07:06:00;;;;;;;2.80;2.03;;;15.90;47.80;;;;;;5038278;28;20064;-48
2023/05/01 07:08:27;;;;;;;5.00;2.30;;;15.90;47.70;;;;;;5035079;28;20071;-49
2023/05/01 07:10:56;;;;;;;4.93;2.55;;;15.90;47.70;;;;;;5038038;28;20072;-48
2023/05/01 07:13:25;;;;;;;3.38;2.17;;;16.00;47.70;;;;;;5035296;28;20060;-48
2023/05/01 07:15:52;;;;;;;3.40;2.30;;;16.00;47.60;;;;;;5036249;28;20055;-48
2023/05/01 07:18:19;;;;;;;4.45;2.20;;;16.00;47.50;;;;;;5035940;28;20052;-51
2023/05/01 07:20:48;;;;;;;4.32;2.42;;;16.10;47.50;;;;;;5035037;28;20061;-48
2023/05/01 07:23:16;;;;;;;3.75;1.95;;;16.10;47.40;;;;;;5039315;28;20416;-51
2023/05/01 07:25:45;;;;;;;4.50;1.98;;;16.10;47.50;;;;;;5032385;28;20053;-50
2023/05/01 07:28:13;;;;;;;5.43;2.22;;;16.20;47.50;;;;;;5040096;28;20053;-50
2023/05/01 07:30:41;;;;;;;4.57;2.38;;;16.20;47.40;;;;;;5035694;28;20064;-48
2023/05/01 07:33:08;;;;;;;3.83;1.98;;;16.20;47.30;;;;;;5041421;28;20060;-49
2023/05/01 07:35:35;;;;;;;6.25;2.60;;;16.30;47.30;;;;;;5039921;28;20061;-47
2023/05/01 07:38:03;;;;;;;4.50;1.83;;;16.30;47.40;;;;;;5038229;28;20519;-50
2023/05/01 07:40:33;;;;;;;4.03;2.30;;;16.30;47.30;;;;;;5036972;28;20064;-53
2023/05/01 07:43:00;;;;;;;3.35;2.13;;;16.40;47.30;;;;;;5036788;28;20397;-49
2023/05/01 07:45:29;;;;;;;3.25;1.92;;;16.40;47.40;;;;;;5038305;28;20114;-48
2023/05/01 07:47:56;;;;;;;5.63;2.30;;;16.40;47.30;;;;;;5043508;28;20500;-49
2023/05/01 07:50:24;;;;;;;4.38;2.00;;;16.50;47.40;;;;;;5039527;28;20053;-48
2023/05/01 07:52:52;;;;;;;4.45;2.03;;;16.50;47.40;;;;;;5043510;28;20052;-51
2023/05/01 07:55:21;;;;;;;4.38;2.08;;;16.50;47.40;;;;;;5042407;28;20053;-52
2023/05/01 07:57:49;;;;;;;3.67;2.05;;;16.60;47.40;;;;;;5042377;28;20156;-48
2023/05/01 08:00:17;;;;;;;5.55;2.20;;;16.60;47.30;;;;;;5039103;28;20052;-53
2023/05/01 08:02:46;;;;;;;5.25;2.20;;;16.70;47.20;;;;;;5042794;28;20056;-49
2023/05/01 08:05:13;;;;;;;3.88;2.08;;;16.70;47.20;;;;;;5040794;28;20052;-50
2023/05/01 08:07:40;;;;;;;10.07;2.45;;;16.80;47.20;;;;;;5040761;28;20088;-49
2023/05/01 08:10:09;;;;;;;5.90;2.65;;;16.80;47.10;;;;;;5037989;28;20049;-49
2023/05/01 08:12:36;;;;;;;4.55;2.20;;;16.80;47.00;;;;;;5039443;28;20083;-48
2023/05/01 08:15:04;;;;;;;4.05;2.10;;;16.90;47.10;;;;;;5040906;28;20500;-51
2023/05/01 08:17:31;;;;;;;4.70;2.35;;;16.90;47.10;;;;;;5042044;28;20488;-54
2023/05/01 08:20:00;;;;;;;3.70;2.10;;;16.90;47.10;;;;;;5042738;28;20053;-50
2023/05/01 08:22:27;;;;;;;4.43;2.63;;;17.00;47.10;;;;;;5040411;28;20052;-50
2023/05/01 08:24:55;;;;;;;4.80;2.42;;;17.00;47.10;;;;;;5037674;28;20045;-50
2023/05/01 08:27:22;;;;;;;4.30;2.28;;;17.10;47.20;;;;;;5042313;28;20602;-50
2023/05/01 08:29:50;;;;;;;4.80;2.40;;;17.10;47.20;;;;;;5041546;28;20057;-49
2023/05/01 08:32:19;;;;;;;3.22;2.10;;;17.20;47.10;;;;;;5041897;28;20449;-49
2023/05/01 08:34:46;;;;;;;4.75;2.70;;;17.20;47.10;;;;;;5041675;28;20072;-48
2023/05/01 08:37:17;;;;;;;4.63;2.38;;;17.30;47.20;;;;;;5040071;28;20049;-46
2023/05/01 08:39:44;;;;;;;5.05;2.35;;;17.30;47.30;;;;;;5040425;28;20048;-48
2023/05/01 08:42:13;;;;;;;3.25;2.10;;;17.40;47.40;;;;;;5041202;28;20488;-49
2023/05/01 08:44:40;;;;;;;5.05;2.28;;;17.40;47.30;;;;;;5039462;28;20412;-51
2023/05/01 08:47:12;;;;;;;2.80;1.90;;;17.40;46.90;;;;;;5041615;28;20488;-48
2023/05/01 08:49:41;;;;;;;4.13;2.20;;;17.50;46.80;;;;;;5037642;28;20057;-49
2023/05/01 08:52:10;;;;;;;3.65;1.70;;;17.60;46.60;;;;;;5040599;28;20049;-49
2023/05/01 08:54:42;;;;;;;4.55;2.00;;;17.60;46.70;;;;;;5041536;28;20072;-49
2023/05/01 08:57:11;;;;;;;4.20;1.98;;;17.70;47.00;;;;;;5041738;28;20128;-47
2023/05/01 08:59:39;;;;;;;3.55;1.95;;;17.80;47.10;;;;;;5036729;28;20052;-49
2023/05/01 09:02:08;;;;;;;3.40;2.20;;;17.80;46.90;;;;;;5039119;28;20048;-48
2023/05/01 09:04:37;;;;;;;3.47;2.05;;;17.90;46.60;;;;;;5040260;28;20124;-53
2023/05/01 09:07:05;;;;;;;6.50;1.95;;;17.90;46.40;;;;;;5038816;28;20060;-48
2023/05/01 09:09:33;;;;;;;6.68;2.40;;;18.00;46.50;;;;;;5040871;28;20052;-48
2023/05/01 09:12:11;;;;;;;4.22;2.30;;;18.10;46.70;;;;;;5040855;28;20504;-52
2023/05/01 09:14:38;;;;;;;4.80;2.20;;;18.20;46.70;;;;;;5039265;28;20057;-48
2023/05/01 09:17:06;;;;;;;3.97;2.20;;;18.20;46.60;;;;;;5038687;28;20045;-51
2023/05/01 09:19:33;;;;;;;5.40;1.90;;;18.20;46.70;;;;;;5038769;28;20045;-50
2023/05/01 09:22:00;;;;;;;3.35;1.95;;;18.30;46.80;;;;;;5040522;28;20485;-47
2023/05/01 09:24:28;;;;;;;4.13;2.10;;;18.40;46.60;;;;;;5039047;28;20052;-51
2023/05/01 09:26:57;;;;;;;4.85;1.85;;;18.50;46.60;;;;;;5038816;28;20057;-50
2023/05/01 09:29:41;;;;;;;3.40;1.83;;;18.60;46.60;;;;;;5039461;28;20053;-54
2023/05/01 09:32:19;;;;;;;5.40;2.35;;;18.60;46.30;;;;;;5020356;28;20048;-47
2023/05/01 09:34:47;;;;;;;3.70;1.88;;;18.70;46.10;;;;;;5038227;28;20511;-51
2023/05/01 09:37:26;;;;;;;4.32;2.20;;;18.80;45.90;;;;;;5040469;28;21225;-45
2023/05/01 09:40:02;;;;;;;4.78;2.38;;;18.90;45.70;;;;;;5035818;28;20052;-47
2023/05/01 09:42:31;;;;;;;6.20;2.95;;;18.90;45.50;;;;;;5037412;28;20053;-46
2023/05/01 09:45:00;;;;;;;3.45;1.90;;;19.00;45.50;;;;;;5037134;28;20430;-45
2023/05/01 09:47:28;;;;;;;3.80;1.95;;;19.10;45.20;;;;;;5038516;28;20060;-46
2023/05/01 09:49:58;;;;;;;5.03;2.03;;;19.20;45.10;;;;;;5034684;28;20132;-47
2023/05/01 09:52:27;;;;;;;2.47;1.80;;;19.20;44.80;;;;;;5037246;28;20057;-45
2023/05/01 09:55:15;;;;;;;4.07;2.00;;;19.30;44.60;;;;;;5039042;28;20059;-45
2023/05/01 09:57:43;;;;;;;3.08;1.65;;;19.30;44.20;;;;;;5035046;28;20412;-48
2023/05/01 10:00:14;;;;;;;3.75;1.95;;;19.40;44.40;;;;;;5038264;28;20518;-49
2023/05/01 10:02:43;;;;;;;3.08;1.80;;;19.40;44.40;;;;;;5034383;28;20060;-49
2023/05/01 10:05:11;;;;;;;2.78;1.77;;;19.50;44.60;;;;;;5032373;28;20045;-47
2023/05/01 10:07:39;;;;;;;5.80;2.10;;;19.50;44.50;;;;;;5040457;28;20056;-47
2023/05/01 10:10:17;;;;;;;3.05;1.77;;;19.60;44.70;;;;;;5036150;28;20477;-48
2023/05/01 10:12:45;;;;;;;7.18;1.80;;;19.60;44.60;;;;;;5039781;28;20056;-48
2023/05/01 10:15:17;;;;;;;3.80;2.25;;;19.60;44.40;;;;;;5039193;28;20053;-45
2023/05/01 10:17:44;;;;;;;3.50;2.13;;;19.70;44.80;;;;;;5038108;28;20380;-45
2023/05/01 10:20:15;;;;;;;6.68;2.22;;;19.70;44.40;;;;;;5037860;28;20506;-47
2023/05/01 10:22:43;;;;;;;3.88;2.20;;;19.80;44.50;;;;;;5036430;28;20075;-47
2023/05/01 10:25:12;;;;;;;4.40;1.92;;;19.80;44.20;;;;;;5036734;28;20049;-48
2023/05/01 10:27:40;;;;;;;7.30;2.22;;;19.90;44.20;;;;;;5038561;28;20057;-46
2023/05/01 10:30:09;;;;;;;2.72;1.70;;;19.90;44.30;;;;;;5035129;28;20598;-51
2023/05/01 10:32:40;;;;;;;5.45;1.90;;;19.90;44.40;;;;;;5034187;28;20060;-51
2023/05/01 10:35:12;;;;;;;3.00;2.05;;;20.00;44.40;;;;;;5039959;28;20063;-49
2023/05/01 10:37:46;;;;;;;3.10;2.35;;;20.00;44.30;;;;;;5039863;28;20052;-49
2023/05/01 10:40:43;;;;;;;3.97;2.20;;;20.10;44.30;;;;;;5037764;28;20067;-48
2023/05/01 10:43:18;;;;;;;3.28;2.03;;;20.10;44.30;;;;;;5035566;28;20484;-52
2023/05/01 10:45:46;;;;;;;3.25;1.80;;;20.20;44.20;;;;;;5037437;28;20418;-49
2023/05/01 10:48:57;;;;;;;2.83;1.80;;;20.30;44.10;;;;;;5039272;28;21231;-49
2023/05/01 10:51:26;;;;;;;3.42;1.92;;;20.30;43.80;;;;;;5037189;28;20497;-51
2023/05/01 10:54:25;;;;;;;3.03;1.85;;;20.40;43.80;;;;;;5036642;28;20610;-47
2023/05/01 10:56:54;;;;;;;3.95;1.83;;;20.40;43.60;;;;;;5037802;28;20045;-49
2023/05/01 10:59:21;;;;;;;3.92;1.88;;;20.50;43.60;;;;;;5036713;28;20519;-47
2023/05/01 11:01:50;;;;;;;5.28;2.00;;;20.60;43.80;;;;;;5035056;28;20440;-48
2023/05/01 11:04:54;;;;;;;3.42;1.70;;;20.60;43.60;;;;;;5038533;28;20055;-49
2023/05/01 11:07:23;;;;;;;4.40;1.97;;;20.60;43.10;;;;;;5038784;28;20068;-48
2023/05/01 11:09:57;;;;;;;3.10;1.98;;;20.70;42.90;;;;;;5035599;28;20056;-51
2023/05/01 11:12:52;;;;;;;2.58;1.70;;;20.70;42.70;;;;;;5038756;28;20045;-50
2023/05/01 11:15:27;;;;;;;3.28;2.00;;;20.80;42.70;;;;;;5038191;28;20484;-51
2023/05/01 11:17:55;;;;;;;3.10;2.22;;;20.80;42.70;;;;;;5035203;28;20068;-50
2023/05/01 11:20:51;;;;;;;4.53;2.28;;;20.80;42.80;;;;;;5037789;28;20052;-49
2023/05/01 11:23:24;;;;;;;5.65;2.20;;;20.90;41.50;;;;;;5035049;28;20087;-50
2023/05/01 11:26:03;;;;;;;4.72;2.17;;;21.00;40.30;;;;;;5036475;28;20053;-46
2023/05/01 11:28:31;;;;;;;2.95;2.00;;;21.00;40.10;;;;;;5039504;28;20057;-50
2023/05/01 11:31:00;;;;;;;3.33;2.00;;;21.00;40.80;;;;;;5035600;28;20052;-48
2023/05/01 11:33:27;;;;;;;3.83;2.42;;;21.00;40.90;;;;;;5037789;28;20401;-50
2023/05/01 11:36:01;;;;;;;6.75;2.30;;;21.00;40.40;;;;;;5036982;28;20067;-45
2023/05/01 11:38:28;;;;;;;5.63;2.60;;;21.00;41.40;;;;;;5039961;28;20060;-49
2023/05/01 11:40:59;;;;;;;6.50;2.72;;;21.00;41.00;;;;;;5039044;28;20484;-50
2023/05/01 11:43:27;;;;;;;4.13;2.17;;;20.90;40.60;;;;;;5040235;28;20045;-50
2023/05/01 11:46:01;;;;;;;4.93;2.35;;;20.90;40.80;;;;;;5038656;28;20120;-52
2023/05/01 11:48:29;;;;;;;2.70;1.88;;;20.80;40.40;;;;;;5041815;28;20065;-50
2023/05/01 11:50:57;;;;;;;5.53;2.45;;;20.80;41.00;;;;;;5039470;28;20056;-54
2023/05/01 11:53:25;;;;;;;3.63;2.50;;;20.80;40.20;;;;;;5039218;28;20045;-47
2023/05/01 11:55:53;;;;;;;5.43;2.50;;;20.70;40.00;;;;;;5039496;28;20053;-47
2023/05/01 11:58:35;;;;;;;7.50;2.67;;;20.70;40.60;;;;;;5038524;28;20408;-48
2023/05/01 12:01:02;;;;;;;6.22;2.60;;;20.60;40.20;;;;;;5035736;28;20057;-50
2023/05/01 12:03:41;;;;;;;4.53;2.58;;;20.60;39.50;;;;;;5041218;28;20061;-47
2023/05/01 12:06:09;;;;;;;4.50;2.20;;;20.50;39.70;;;;;;5039309;28;20532;-49
2023/05/01 12:08:43;;;;;;;6.13;2.47;;;20.50;40.10;;;;;;5039427;28;20048;-52
2023/05/01 12:11:11;;;;;;;3.97;2.42;;;20.50;41.10;;;;;;5038143;28;20045;-47
2023/05/01 12:13:40;;;;;;;5.72;2.50;;;20.50;41.50;;;;;;5039818;28;20397;-45
2023/05/01 12:16:09;;;;;;;4.13;2.20;;;20.50;42.30;;;;;;5038785;28;20053;-50
2023/05/01 12:18:36;;;;;;;4.80;2.33;;;20.60;42.00;;;;;;5038182;28;20056;-50
2023/05/01 12:21:03;;;;;;;3.38;2.05;;;20.50;41.70;;;;;;5040492;28;20057;-46
2023/05/01 12:23:33;;;;;;;6.93;3.33;;;20.60;42.00;;;;;;5037370;28;20053;-44
2023/05/01 12:26:03;;;;;;;5.72;3.03;;;20.60;42.20;;;;;;5039888;28;20060;-49
2023/05/01 12:28:31;;;;;;;5.20;2.60;;;20.60;42.10;;;;;;5038909;28;20061;-46
2023/05/01 12:31:02;;;;;;;4.57;2.88;;;20.60;41.80;;;;;;5038018;28;20507;-46
2023/05/01 12:33:29;;;;;;;4.57;2.50;;;20.60;42.00;;;;;;5042182;28;20060;-44
2023/05/01 12:36:09;;;;;;;2.47;1.92;;;20.60;42.50;;;;;;5043984;28;20855;-46
2023/05/01 12:38:37;;;;;;;2.92;1.73;;;20.70;42.10;;;;;;5042569;28;20148;-48
2023/05/01 12:41:08;;;;;;;3.35;2.00;;;20.70;42.20;;;;;;5043087;28;20060;-47
2023/05/01 12:43:36;;;;;;;4.25;2.10;;;20.70;42.00;;;;;;5043758;28;20068;-45
2023/05/01 12:46:05;;;;;;;3.05;2.10;;;20.70;41.80;;;;;;5042839;28;20061;-47
2023/05/01 12:48:33;;;;;;;3.05;1.95;;;20.70;42.10;;;;;;5042104;28;20053;-47
2023/05/01 12:51:01;;;;;;;2.90;1.67;;;20.70;42.20;;;;;;5043958;28;20059;-50
2023/05/01 12:53:29;;;;;;;3.75;1.83;;;20.80;42.10;;;;;;5040960;28;20060;-46
2023/05/01 12:55:57;;;;;;;3.50;1.88;;;20.80;42.00;;;;;;5043547;28;20496;-48
2023/05/01 12:58:35;;;;;;;4.13;2.25;;;20.80;42.20;;;;;;5042628;28;20449;-48
2023/05/01 13:01:02;;;;;;;6.80;2.30;;;20.80;41.90;;;;;;5037607;28;20500;-47